createdAt,value
2023-04-19T00:01:09.829Z,100829.41
2023-04-19T00:06:02.988Z,100858.50
2023-04-19T00:10:57.496Z,100851.53
2023-04-19T00:15:50.626Z,100841.63
2023-04-19T00:20:44.416Z,100810.34
2023-04-19T00:25:37.533Z,100855.50
2023-04-19T00:30:32.193Z,100820.97
2023-04-19T00:35:25.286Z,100851.78
2023-04-19T00:40:18.789Z,100833.22
2023-04-19T00:45:12.928Z,100847.22
2023-04-19T00:50:09.521Z,100843.84
2023-04-19T00:55:03.127Z,100842.19
2023-04-19T00:59:57.538Z,100846.56
2023-04-19T01:04:50.751Z,100845.53
2023-04-19T01:09:47.148Z,100836.88
2023-04-19T01:14:41.052Z,100808.59
2023-04-19T01:19:34.984Z,100786.97
2023-04-19T01:24:29.652Z,100764.47
2023-04-19T01:29:23.238Z,100824.34
2023-04-19T01:34:16.666Z,100824.34
2023-04-19T01:39:11.024Z,100800.13
2023-04-19T01:44:07.751Z,100823.41
2023-04-19T01:49:00.931Z,100794.22
2023-04-19T01:53:54.837Z,100793.47
2023-04-19T01:58:49.455Z,100803.59
2023-04-19T02:03:44.161Z,100771.22
2023-04-19T02:08:37.544Z,100776.25
2023-04-19T02:13:30.909Z,100803.06
2023-04-19T02:18:24.291Z,100792.50
2023-04-19T02:23:19.049Z,100810.22
2023-04-19T02:28:12.312Z,100812.00
2023-04-19T02:33:05.664Z,100796.88
2023-04-19T02:38:01.725Z,100782.97
2023-04-19T02:42:56.250Z,100802.94
2023-04-19T02:47:49.517Z,100759.50
2023-04-19T02:52:42.651Z,100749.28
2023-04-19T02:57:36.017Z,100787.78
2023-04-19T03:02:31.947Z,100792.03
2023-04-19T03:07:25.190Z,100736.97
2023-04-19T03:12:18.470Z,100797.06
2023-04-19T03:17:16.536Z,100772.84
2023-04-19T03:22:12.699Z,100748.44
2023-04-19T03:27:06.835Z,100792.50
2023-04-19T03:32:00.689Z,100666.19
2023-04-19T03:36:54.902Z,100761.97
2023-04-19T03:41:49.664Z,100794.72
2023-04-19T03:46:50.133Z,100791.28
2023-04-19T03:51:48.280Z,100792.19
2023-04-19T03:56:41.535Z,100787.19
2023-04-19T04:01:41.832Z,100691.53
2023-04-19T04:06:35.144Z,100792.19
2023-04-19T04:11:28.424Z,100758.78
2023-04-19T04:16:21.819Z,100790.31
2023-04-19T04:21:18.357Z,100787.72
2023-04-19T04:26:14.062Z,100761.94
2023-04-19T04:31:26.412Z,100783.41
2023-04-19T04:36:21.038Z,100784.63
2023-04-19T04:41:16.661Z,100790.50
2023-04-19T04:46:09.791Z,100792.03
2023-04-19T04:51:07.365Z,100798.13
2023-04-19T04:56:03.053Z,100794.38
2023-04-19T05:00:57.493Z,100788.53
2023-04-19T05:05:52.230Z,100803.25
2023-04-19T05:10:45.468Z,100795.97
2023-04-19T05:15:41.299Z,100801.72
2023-04-19T05:20:35.547Z,100801.22
2023-04-19T05:25:38.327Z,100787.88
2023-04-19T05:30:38.202Z,100771.28
2023-04-19T05:35:33.126Z,100758.31
2023-04-19T05:40:27.299Z,100808.41
2023-04-19T05:45:20.427Z,100771.34
2023-04-19T05:50:15.087Z,100802.56
2023-04-19T05:55:15.194Z,100798.97
2023-04-19T06:00:12.288Z,100795.63
2023-04-19T06:05:24.312Z,100780.19
2023-04-19T06:10:19.249Z,100773.03
2023-04-19T06:15:13.051Z,100747.38
2023-04-19T06:20:08.396Z,100774.38
2023-04-19T06:25:02.554Z,100778.47
2023-04-19T06:29:57.120Z,100781.59
2023-04-19T06:34:50.234Z,100784.09
2023-04-19T06:39:43.304Z,100766.56
2023-04-19T06:44:36.604Z,100790.16
2023-04-19T06:49:31.359Z,100790.78
2023-04-19T06:54:27.116Z,100790.44
2023-04-19T06:59:21.676Z,100767.28
2023-04-19T07:04:15.720Z,100789.97
2023-04-19T07:09:10.667Z,100798.19
2023-04-19T07:14:03.901Z,100804.63
2023-04-19T07:18:57.959Z,100802.94
2023-04-19T07:23:51.184Z,100789.28
2023-04-19T07:28:45.957Z,100773.53
2023-04-19T07:33:39.062Z,100776.13
2023-04-19T07:38:32.176Z,100805.69
2023-04-19T07:43:25.558Z,100813.69
2023-04-19T07:48:20.121Z,100772.63
2023-04-19T07:53:13.289Z,100815.66
2023-04-19T07:58:06.452Z,100820.75
2023-04-19T08:02:59.696Z,100795.53
2023-04-19T08:07:54.769Z,100778.25
2023-04-19T08:13:01.606Z,100806.00
2023-04-19T08:17:58.412Z,100794.34
2023-04-19T08:22:54.236Z,100752.28
2023-04-19T08:27:47.288Z,100806.13
2023-04-19T08:32:40.526Z,100773.34
2023-04-19T08:37:33.749Z,100804.09
2023-04-19T08:42:36.365Z,100771.13
2023-04-19T08:47:34.155Z,100798.44
2023-04-19T08:52:29.128Z,100773.06
2023-04-19T08:57:22.375Z,100730.59
2023-04-19T09:02:17.177Z,100778.13
2023-04-19T09:07:10.450Z,100798.06
2023-04-19T09:12:04.062Z,100798.28
2023-04-19T09:17:17.181Z,100800.03
2023-04-19T09:22:15.691Z,100768.69
2023-04-19T09:27:10.672Z,100779.94
2023-04-19T09:32:03.982Z,100806.72
2023-04-19T09:37:27.920Z,100785.09
2023-04-19T09:47:44.901Z,100802.47
2023-04-19T09:52:41.724Z,100782.19
2023-04-19T09:57:35.699Z,100793.00
2023-04-19T10:02:32.893Z,100753.19
2023-04-19T10:07:30.985Z,100779.44
2023-04-19T10:12:58.547Z,100709.03
2023-04-19T10:17:45.632Z,100786.66
2023-04-19T10:22:39.429Z,100752.91
2023-04-19T10:27:36.173Z,100779.06
2023-04-19T10:32:30.175Z,100748.34
2023-04-19T10:37:25.251Z,100773.50
2023-04-19T10:42:18.487Z,100783.22
2023-04-19T10:47:14.614Z,100775.44
2023-04-19T10:52:27.997Z,100777.53
2023-04-19T10:57:25.339Z,100775.00
2023-04-19T11:02:32.860Z,100778.00
2023-04-19T11:07:26.527Z,100776.53
2023-04-19T11:12:20.786Z,100773.69
2023-04-19T11:17:18.462Z,100767.63
2023-04-19T11:22:13.020Z,100764.91
2023-04-19T11:27:10.604Z,100758.66
2023-04-19T11:32:06.685Z,100746.97
2023-04-19T11:37:00.126Z,100758.81
2023-04-19T11:41:54.738Z,100748.00
2023-04-19T11:47:01.837Z,100705.97
2023-04-19T11:51:58.090Z,100721.88
2023-04-19T11:57:08.612Z,100723.69
2023-04-19T12:02:09.437Z,100712.53
2023-04-19T12:07:04.205Z,100657.31
2023-04-19T12:11:58.467Z,100668.28
2023-04-19T12:17:12.170Z,100657.44
2023-04-19T12:22:13.332Z,100682.81
2023-04-19T12:27:06.482Z,100673.75
2023-04-19T12:32:05.796Z,100666.03
2023-04-19T12:37:00.957Z,100656.19
2023-04-19T12:41:54.157Z,100632.22
2023-04-19T12:46:47.486Z,100641.47
2023-04-19T12:51:42.589Z,100638.38
2023-04-19T12:56:37.247Z,100631.44
2023-04-19T13:01:30.493Z,100629.28
2023-04-19T13:06:23.905Z,100598.72
2023-04-19T13:11:26.911Z,100625.56
2023-04-19T13:16:22.552Z,100553.56
2023-04-19T13:21:15.956Z,100621.63
2023-04-19T13:26:09.157Z,100618.84
2023-04-19T13:31:02.735Z,100618.47
2023-04-19T13:35:57.220Z,100616.97
2023-04-19T13:40:50.809Z,100599.88
2023-04-19T13:45:46.321Z,100609.47
2023-04-19T13:50:39.476Z,100584.13
2023-04-19T13:55:34.058Z,100586.91
2023-04-19T14:00:27.501Z,100597.13
2023-04-19T14:05:31.269Z,100597.75
2023-04-19T14:10:38.800Z,100596.50
2023-04-19T14:15:34.730Z,100592.88
2023-04-19T14:20:28.260Z,100580.84
2023-04-19T14:25:21.481Z,100587.16
2023-04-19T14:30:16.344Z,100551.94
2023-04-19T14:35:14.208Z,100597.00
2023-04-19T14:40:10.704Z,100575.03
2023-04-19T14:45:03.999Z,100583.50
2023-04-19T14:50:00.907Z,100581.69
2023-04-19T14:54:54.074Z,100580.72
2023-04-19T14:59:47.212Z,100588.56
2023-04-19T15:04:41.283Z,100588.53
2023-04-19T15:09:36.603Z,100574.56
2023-04-19T15:14:29.692Z,100567.06
2023-04-19T15:19:22.781Z,100599.44
2023-04-19T15:24:15.914Z,100585.81
2023-04-19T15:29:10.401Z,100593.16
2023-04-19T15:34:04.155Z,100582.88
2023-04-19T15:38:58.365Z,100570.75
2023-04-19T15:44:01.625Z,100593.84
2023-04-19T15:48:56.268Z,100590.69
2023-04-19T15:53:51.284Z,100556.50
2023-04-19T15:58:44.457Z,100585.66
2023-04-19T16:03:40.522Z,100561.72
2023-04-19T16:08:35.178Z,100562.47
2023-04-19T16:13:29.576Z,100578.66
2023-04-19T16:18:25.370Z,100582.13
2023-04-19T16:23:18.551Z,100553.31
2023-04-19T16:28:13.086Z,100573.63
2023-04-19T16:33:09.553Z,100565.41
2023-04-19T16:38:04.505Z,100582.00
2023-04-19T16:42:58.320Z,100584.25
2023-04-19T16:47:53.834Z,100591.75
2023-04-19T16:52:47.362Z,100592.47
2023-04-19T16:57:40.737Z,100595.81
2023-04-19T17:02:34.711Z,100604.97
2023-04-19T17:07:34.459Z,100596.41
2023-04-19T17:12:27.733Z,100573.97
2023-04-19T17:17:21.377Z,100584.00
2023-04-19T17:22:15.793Z,100401.66
2023-04-19T17:27:10.577Z,100592.78
2023-04-19T17:32:07.248Z,100594.28
2023-04-19T17:37:01.535Z,100547.19
2023-04-19T17:41:55.345Z,100612.81
2023-04-19T17:46:51.809Z,100630.91
2023-04-19T17:51:45.065Z,100638.50
2023-04-19T17:56:38.638Z,100648.88
2023-04-19T18:01:32.155Z,100644.16
2023-04-19T18:06:28.415Z,100542.91
2023-04-19T18:11:22.945Z,100614.56
2023-04-19T18:16:17.389Z,100677.56
2023-04-19T18:21:10.701Z,100646.47
2023-04-19T18:26:05.467Z,100697.41
2023-04-19T18:31:01.101Z,100696.38
2023-04-19T18:35:54.465Z,100699.13
2023-04-19T18:40:48.339Z,100602.69
2023-04-19T18:45:43.489Z,100722.69
2023-04-19T18:50:43.653Z,100531.75
2023-04-19T18:55:36.717Z,100714.25
2023-04-19T19:00:33.098Z,100653.22
2023-04-19T19:05:29.234Z,100684.06
2023-04-19T19:10:26.673Z,100574.19
2023-04-19T19:15:37.389Z,100593.31
2023-04-19T19:20:32.146Z,100676.78
2023-04-19T19:25:28.558Z,100681.47
2023-04-19T19:30:23.357Z,100704.41
2023-04-19T19:35:16.545Z,100678.63
2023-04-19T19:40:14.992Z,100685.16
2023-04-19T19:45:12.546Z,100643.00
2023-04-19T19:55:05.567Z,100700.66
2023-04-19T20:00:32.050Z,100649.84
2023-04-19T20:05:25.301Z,100712.00
2023-04-19T20:10:21.780Z,100645.59
2023-04-19T20:15:16.463Z,100717.59
2023-04-19T20:20:13.251Z,100721.69
2023-04-19T20:25:07.559Z,100720.50
2023-04-19T20:30:02.395Z,100721.09
2023-04-19T20:34:57.288Z,100727.06
2023-04-19T20:39:50.536Z,100570.56
2023-04-19T20:44:43.689Z,100642.47
2023-04-19T20:49:37.000Z,100719.59
2023-04-19T20:54:31.755Z,100627.47
2023-04-19T20:59:25.000Z,100698.53
2023-04-19T21:04:18.199Z,100630.56
2023-04-19T21:09:11.635Z,100698.53
2023-04-19T21:14:06.287Z,100693.56
2023-04-19T21:19:02.521Z,100719.09
2023-04-19T21:24:04.382Z,100712.34
2023-04-19T21:28:57.664Z,100724.81
2023-04-19T21:33:52.233Z,100732.06
2023-04-19T21:38:45.493Z,100718.97
2023-04-19T21:43:40.933Z,100675.28
2023-04-19T21:48:36.991Z,100667.66
2023-04-19T21:53:36.434Z,100717.19
2023-04-19T21:58:29.881Z,100605.47
2023-04-19T22:03:26.218Z,100615.81
2023-04-19T22:08:19.609Z,100705.06
2023-04-19T22:13:14.306Z,100717.81
2023-04-19T22:18:08.272Z,100628.88
2023-04-19T22:23:09.626Z,100715.41
2023-04-19T22:28:02.956Z,100678.09
2023-04-19T22:32:57.582Z,100727.66
2023-04-19T22:37:50.838Z,100642.88
2023-04-19T22:42:44.046Z,100681.78
2023-04-19T22:47:37.509Z,100702.94
2023-04-19T22:52:32.296Z,100729.09
2023-04-19T22:57:27.797Z,100719.72
2023-04-19T23:02:20.974Z,100707.69
2023-04-19T23:07:14.178Z,100716.00
2023-04-19T23:12:09.211Z,100720.53
2023-04-19T23:17:03.029Z,100720.75
2023-04-19T23:21:56.325Z,100719.91
2023-04-19T23:26:49.513Z,100715.75
2023-04-19T23:31:44.147Z,100654.63
2023-04-19T23:36:37.394Z,100648.09
2023-04-19T23:41:30.568Z,100592.00
2023-04-19T23:46:24.188Z,100707.19
2023-04-19T23:51:18.769Z,100706.69
2023-04-19T23:56:11.964Z,100520.69
